sensor_id;sensor_type;location;lat;lon;timestamp;pressure;altitude;pressure_sealevel;temperature;humidity
12973;BME280;6551;51.056;9.466;2023-10-31T00:02:14;95641.44;;;19.58;65.67
12973;BME280;6551;51.056;9.466;2023-10-31T00:04:40;95639.19;;;19.68;65.23
12973;BME280;6551;51.056;9.466;2023-10-31T00:07:05;95636.28;;;19.27;66.73
12973;BME280;6551;51.056;9.466;2023-10-31T00:09:31;95646.56;;;19.51;66.72
12973;BME280;6551;51.056;9.466;2023-10-31T00:11:58;95643.19;;;19.62;65.99
12973;BME280;6551;51.056;9.466;2023-10-31T00:14:24;95636.63;;;19.63;66.46
12973;BME280;6551;51.056;9.466;2023-10-31T00:16:49;95636.19;;;19.61;65.89
12973;BME280;6551;51.056;9.466;2023-10-31T00:19:15;95640.78;;;19.61;65.95
12973;BME280;6551;51.056;9.466;2023-10-31T00:21:41;95636.59;;;19.43;66.40
12973;BME280;6551;51.056;9.466;2023-10-31T00:24:07;95646.94;;;19.41;66.41
12973;BME280;6551;51.056;9.466;2023-10-31T00:26:32;95652.34;;;19.41;66.49
12973;BME280;6551;51.056;9.466;2023-10-31T00:28:58;95638.72;;;19.58;65.93
12973;BME280;6551;51.056;9.466;2023-10-31T00:31:24;95642.22;;;19.20;66.59
12973;BME280;6551;51.056;9.466;2023-10-31T00:33:49;95650.06;;;19.51;66.52
12973;BME280;6551;51.056;9.466;2023-10-31T00:36:15;95643.25;;;19.37;66.26
12973;BME280;6551;51.056;9.466;2023-10-31T00:38:41;95640.56;;;18.82;67.44
12973;BME280;6551;51.056;9.466;2023-10-31T00:41:07;95623.31;;;18.48;68.54
12973;BME280;6551;51.056;9.466;2023-10-31T00:43:32;95629.78;;;18.64;68.04
12973;BME280;6551;51.056;9.466;2023-10-31T00:45:58;95620.44;;;18.53;68.49
12973;BME280;6551;51.056;9.466;2023-10-31T00:48:24;95633.44;;;18.43;68.88
12973;BME280;6551;51.056;9.466;2023-10-31T00:50:49;95620.91;;;18.64;68.53
12973;BME280;6551;51.056;9.466;2023-10-31T00:53:15;95619.31;;;18.11;68.61
12973;BME280;6551;51.056;9.466;2023-10-31T00:55:42;95627.06;;;18.82;67.51
12973;BME280;6551;51.056;9.466;2023-10-31T00:58:08;95630.84;;;18.89;67.31
12973;BME280;6551;51.056;9.466;2023-10-31T01:00:33;95627.25;;;18.68;67.49
12973;BME280;6551;51.056;9.466;2023-10-31T01:03:00;95628.19;;;18.81;67.73
12973;BME280;6551;51.056;9.466;2023-10-31T01:05:26;95623.28;;;18.74;67.31
12973;BME280;6551;51.056;9.466;2023-10-31T01:07:54;95612.19;;;18.76;67.00
12973;BME280;6551;51.056;9.466;2023-10-31T01:10:19;95623.41;;;19.33;65.87
12973;BME280;6551;51.056;9.466;2023-10-31T01:12:45;95620.78;;;19.24;65.56
12973;BME280;6551;51.056;9.466;2023-10-31T01:15:11;95622.75;;;19.44;65.21
12973;BME280;6551;51.056;9.466;2023-10-31T01:17:37;95620.78;;;19.62;64.37
12973;BME280;6551;51.056;9.466;2023-10-31T01:20:03;95625.69;;;19.22;65.23
12973;BME280;6551;51.056;9.466;2023-10-31T01:22:28;95621.66;;;18.99;65.83
12973;BME280;6551;51.056;9.466;2023-10-31T01:24:54;95620.25;;;18.76;66.52
12973;BME280;6551;51.056;9.466;2023-10-31T01:27:20;95613.63;;;18.64;67.01
12973;BME280;6551;51.056;9.466;2023-10-31T01:29:45;95617.06;;;18.91;66.60
12973;BME280;6551;51.056;9.466;2023-10-31T01:32:11;95614.50;;;18.94;66.53
12973;BME280;6551;51.056;9.466;2023-10-31T01:34:37;95616.69;;;19.09;65.91
12973;BME280;6551;51.056;9.466;2023-10-31T01:37:03;95615.72;;;19.14;65.58
12973;BME280;6551;51.056;9.466;2023-10-31T01:39:29;95623.13;;;18.79;66.04
12973;BME280;6551;51.056;9.466;2023-10-31T01:41:54;95621.78;;;18.94;66.18
12973;BME280;6551;51.056;9.466;2023-10-31T01:44:20;95617.50;;;19.01;65.86
12973;BME280;6551;51.056;9.466;2023-10-31T01:46:46;95614.38;;;18.82;66.00
12973;BME280;6551;51.056;9.466;2023-10-31T01:49:14;95616.88;;;18.96;65.79
12973;BME280;6551;51.056;9.466;2023-10-31T01:51:41;95610.47;;;18.62;66.53
12973;BME280;6551;51.056;9.466;2023-10-31T01:54:08;95613.75;;;18.85;66.59
12973;BME280;6551;51.056;9.466;2023-10-31T01:56:35;95611.06;;;18.85;65.97
12973;BME280;6551;51.056;9.466;2023-10-31T01:59:02;95612.16;;;18.84;65.86
12973;BME280;6551;51.056;9.466;2023-10-31T02:01:32;95605.97;;;18.84;65.74
12973;BME280;6551;51.056;9.466;2023-10-31T02:03:57;95616.72;;;18.92;65.84
12973;BME280;6551;51.056;9.466;2023-10-31T02:06:24;95621.53;;;19.24;64.38
12973;BME280;6551;51.056;9.466;2023-10-31T02:08:50;95620.09;;;19.27;64.20
12973;BME280;6551;51.056;9.466;2023-10-31T02:11:15;95628.16;;;18.98;64.88
12973;BME280;6551;51.056;9.466;2023-10-31T02:13:41;95637.41;;;18.80;64.57
12973;BME280;6551;51.056;9.466;2023-10-31T02:16:07;95645.78;;;18.09;65.60
12973;BME280;6551;51.056;9.466;2023-10-31T02:18:33;95639.66;;;18.52;64.70
12973;BME280;6551;51.056;9.466;2023-10-31T02:20:59;95649.31;;;18.61;63.74
12973;BME280;6551;51.056;9.466;2023-10-31T02:23:24;95660.72;;;18.50;63.36
12973;BME280;6551;51.056;9.466;2023-10-31T02:25:50;95659.28;;;18.69;63.36
12973;BME280;6551;51.056;9.466;2023-10-31T02:28:16;95657.84;;;18.63;61.65
12973;BME280;6551;51.056;9.466;2023-10-31T02:30:41;95651.69;;;18.63;61.11
12973;BME280;6551;51.056;9.466;2023-10-31T02:33:07;95657.06;;;18.72;61.01
12973;BME280;6551;51.056;9.466;2023-10-31T02:35:33;95672.47;;;18.62;60.42
12973;BME280;6551;51.056;9.466;2023-10-31T02:37:58;95667.06;;;18.62;60.70
12973;BME280;6551;51.056;9.466;2023-10-31T02:40:24;95673.72;;;18.48;61.13
12973;BME280;6551;51.056;9.466;2023-10-31T02:42:50;95671.84;;;18.57;61.83
12973;BME280;6551;51.056;9.466;2023-10-31T02:45:15;95669.44;;;18.55;61.73
12973;BME280;6551;51.056;9.466;2023-10-31T02:47:41;95659.91;;;18.75;61.34
12973;BME280;6551;51.056;9.466;2023-10-31T02:50:07;95662.72;;;19.13;60.61
12973;BME280;6551;51.056;9.466;2023-10-31T02:52:33;95652.13;;;18.91;60.41
12973;BME280;6551;51.056;9.466;2023-10-31T02:54:59;95646.59;;;18.79;60.68
12973;BME280;6551;51.056;9.466;2023-10-31T02:57:24;95652.16;;;18.65;61.30
12973;BME280;6551;51.056;9.466;2023-10-31T02:59:50;95662.63;;;18.66;61.25
12973;BME280;6551;51.056;9.466;2023-10-31T03:02:16;95663.69;;;18.91;60.63
12973;BME280;6551;51.056;9.466;2023-10-31T03:04:41;95665.56;;;18.99;59.73
12973;BME280;6551;51.056;9.466;2023-10-31T03:07:07;95674.78;;;18.98;59.93
12973;BME280;6551;51.056;9.466;2023-10-31T03:09:33;95676.84;;;18.41;60.45
12973;BME280;6551;51.056;9.466;2023-10-31T03:11:58;95684.81;;;18.55;60.81
12973;BME280;6551;51.056;9.466;2023-10-31T03:14:24;95694.78;;;18.89;60.11
12973;BME280;6551;51.056;9.466;2023-10-31T03:16:50;95708.16;;;18.77;60.35
12973;BME280;6551;51.056;9.466;2023-10-31T03:19:16;95718.88;;;19.02;59.87
12973;BME280;6551;51.056;9.466;2023-10-31T03:21:41;95723.19;;;19.03;59.76
12973;BME280;6551;51.056;9.466;2023-10-31T03:24:07;95724.91;;;19.16;59.75
12973;BME280;6551;51.056;9.466;2023-10-31T03:26:33;95723.63;;;19.14;59.53
12973;BME280;6551;51.056;9.466;2023-10-31T03:28:59;95720.63;;;19.24;59.10
12973;BME280;6551;51.056;9.466;2023-10-31T03:31:24;95732.88;;;18.87;59.68
12973;BME280;6551;51.056;9.466;2023-10-31T03:33:50;95741.88;;;19.17;60.20
12973;BME280;6551;51.056;9.466;2023-10-31T03:36:17;95753.31;;;19.05;60.01
12973;BME280;6551;51.056;9.466;2023-10-31T03:38:43;95751.91;;;18.74;60.55
12973;BME280;6551;51.056;9.466;2023-10-31T03:41:08;95751.19;;;18.34;61.26
12973;BME280;6551;51.056;9.466;2023-10-31T03:43:34;95759.41;;;18.20;61.66
12973;BME280;6551;51.056;9.466;2023-10-31T03:46:00;95757.38;;;18.26;61.48
12973;BME280;6551;51.056;9.466;2023-10-31T03:48:26;95764.97;;;18.24;61.55
12973;BME280;6551;51.056;9.466;2023-10-31T03:50:52;95765.94;;;18.36;61.44
12973;BME280;6551;51.056;9.466;2023-10-31T03:53:18;95765.13;;;18.19;61.93
12973;BME280;6551;51.056;9.466;2023-10-31T03:55:43;95760.44;;;18.50;61.59
12973;BME280;6551;51.056;9.466;2023-10-31T03:58:09;95752.09;;;18.03;61.54
12973;BME280;6551;51.056;9.466;2023-10-31T04:00:35;95754.94;;;18.07;61.62
12973;BME280;6551;51.056;9.466;2023-10-31T04:03:01;95758.97;;;18.27;61.43
12973;BME280;6551;51.056;9.466;2023-10-31T04:05:26;95764.38;;;18.44;60.83
12973;BME280;6551;51.056;9.466;2023-10-31T04:07:52;95765.47;;;18.34;60.54
12973;BME280;6551;51.056;9.466;2023-10-31T04:10:19;95767.94;;;18.13;60.71
12973;BME280;6551;51.056;9.466;2023-10-31T04:12:45;95774.88;;;17.97;61.06
12973;BME280;6551;51.056;9.466;2023-10-31T04:15:10;95776.16;;;18.00;61.12
12973;BME280;6551;51.056;9.466;2023-10-31T04:17:37;95779.09;;;18.29;60.81
12973;BME280;6551;51.056;9.466;2023-10-31T04:20:05;95776.44;;;18.46;60.57
12973;BME280;6551;51.056;9.466;2023-10-31T04:22:31;95779.13;;;18.38;60.40
12973;BME280;6551;51.056;9.466;2023-10-31T04:24:57;95787.00;;;18.26;60.24
12973;BME280;6551;51.056;9.466;2023-10-31T04:27:22;95783.75;;;17.98;60.50
12973;BME280;6551;51.056;9.466;2023-10-31T04:29:48;95783.56;;;17.94;60.99
12973;BME280;6551;51.056;9.466;2023-10-31T04:32:14;95785.22;;;18.13;60.51
12973;BME280;6551;51.056;9.466;2023-10-31T04:34:39;95800.41;;;18.08;60.53
12973;BME280;6551;51.056;9.466;2023-10-31T04:37:05;95801.56;;;17.85;60.67
12973;BME280;6551;51.056;9.466;2023-10-31T04:39:31;95791.94;;;17.84;60.82
12973;BME280;6551;51.056;9.466;2023-10-31T04:41:57;95796.63;;;17.70;61.10
12973;BME280;6551;51.056;9.466;2023-10-31T04:44:22;95804.78;;;17.87;60.96
12973;BME280;6551;51.056;9.466;2023-10-31T04:46:48;95804.53;;;18.06;60.79
12973;BME280;6551;51.056;9.466;2023-10-31T04:49:14;95817.63;;;17.90;61.00
12973;BME280;6551;51.056;9.466;2023-10-31T04:51:41;95822.59;;;18.05;60.65
12973;BME280;6551;51.056;9.466;2023-10-31T04:54:06;95812.94;;;17.74;61.33
12973;BME280;6551;51.056;9.466;2023-10-31T04:56:33;95828.59;;;18.02;61.04
12973;BME280;6551;51.056;9.466;2023-10-31T04:58:59;95821.41;;;17.89;60.81
12973;BME280;6551;51.056;9.466;2023-10-31T05:01:25;95822.63;;;18.14;61.28
12973;BME280;6551;51.056;9.466;2023-10-31T05:03:50;95822.41;;;17.93;61.23
12973;BME280;6551;51.056;9.466;2023-10-31T05:06:20;95830.41;;;18.16;61.13
12973;BME280;6551;51.056;9.466;2023-10-31T05:08:47;95813.31;;;18.20;60.64
12973;BME280;6551;51.056;9.466;2023-10-31T05:11:13;95822.06;;;17.95;60.64
12973;BME280;6551;51.056;9.466;2023-10-31T05:13:39;95835.78;;;17.76;60.57
12973;BME280;6551;51.056;9.466;2023-10-31T05:16:06;95825.69;;;17.90;60.70
12973;BME280;6551;51.056;9.466;2023-10-31T05:18:31;95835.00;;;17.84;60.50
12973;BME280;6551;51.056;9.466;2023-10-31T05:20:57;95839.13;;;17.82;60.47
12973;BME280;6551;51.056;9.466;2023-10-31T05:23:22;95840.44;;;17.93;60.80
12973;BME280;6551;51.056;9.466;2023-10-31T05:25:48;95836.47;;;17.60;61.01
12973;BME280;6551;51.056;9.466;2023-10-31T05:28:14;95838.63;;;17.35;61.38
12973;BME280;6551;51.056;9.466;2023-10-31T05:30:39;95838.16;;;17.33;61.30
12973;BME280;6551;51.056;9.466;2023-10-31T05:33:05;95845.78;;;17.18;60.99
12973;BME280;6551;51.056;9.466;2023-10-31T05:35:31;95848.00;;;17.38;61.11
12973;BME280;6551;51.056;9.466;2023-10-31T05:37:56;95844.66;;;17.32;60.55
12973;BME280;6551;51.056;9.466;2023-10-31T05:40:22;95844.31;;;17.34;60.89
12973;BME280;6551;51.056;9.466;2023-10-31T05:42:50;95845.03;;;17.04;61.40
12973;BME280;6551;51.056;9.466;2023-10-31T05:45:16;95856.69;;;17.35;61.75
12973;BME280;6551;51.056;9.466;2023-10-31T05:47:42;95849.16;;;17.23;61.15
12973;BME280;6551;51.056;9.466;2023-10-31T05:50:08;95853.00;;;17.53;60.78
12973;BME280;6551;51.056;9.466;2023-10-31T05:52:34;95851.50;;;17.03;61.32
12973;BME280;6551;51.056;9.466;2023-10-31T05:54:59;95855.69;;;17.31;61.18
12973;BME280;6551;51.056;9.466;2023-10-31T05:57:25;95864.03;;;17.65;61.34
12973;BME280;6551;51.056;9.466;2023-10-31T05:59:51;95868.06;;;17.76;60.43
12973;BME280;6551;51.056;9.466;2023-10-31T06:02:16;95867.88;;;17.28;61.18
12973;BME280;6551;51.056;9.466;2023-10-31T06:04:42;95868.78;;;17.24;61.77
12973;BME280;6551;51.056;9.466;2023-10-31T06:07:08;95875.63;;;17.52;61.87
12973;BME280;6551;51.056;9.466;2023-10-31T06:09:33;95874.06;;;17.51;62.02
12973;BME280;6551;51.056;9.466;2023-10-31T06:12:00;95881.09;;;17.61;61.91
12973;BME280;6551;51.056;9.466;2023-10-31T06:14:26;95881.19;;;17.33;62.02
12973;BME280;6551;51.056;9.466;2023-10-31T06:16:52;95886.81;;;17.23;62.82
12973;BME280;6551;51.056;9.466;2023-10-31T06:19:18;95892.34;;;17.40;63.46
12973;BME280;6551;51.056;9.466;2023-10-31T06:21:43;95891.28;;;17.50;63.07
12973;BME280;6551;51.056;9.466;2023-10-31T06:24:09;95874.34;;;17.27;63.70
12973;BME280;6551;51.056;9.466;2023-10-31T06:26:35;95892.22;;;17.45;62.97
12973;BME280;6551;51.056;9.466;2023-10-31T06:29:01;95885.69;;;17.24;63.38
12973;BME280;6551;51.056;9.466;2023-10-31T06:31:27;95899.34;;;17.28;63.86
12973;BME280;6551;51.056;9.466;2023-10-31T06:33:52;95895.69;;;17.24;63.68
12973;BME280;6551;51.056;9.466;2023-10-31T06:36:18;95908.03;;;17.25;63.92
12973;BME280;6551;51.056;9.466;2023-10-31T06:38:44;95912.88;;;17.36;63.29
12973;BME280;6551;51.056;9.466;2023-10-31T06:41:09;95906.38;;;17.15;63.42
12973;BME280;6551;51.056;9.466;2023-10-31T06:43:35;95914.00;;;17.58;63.26
12973;BME280;6551;51.056;9.466;2023-10-31T06:46:01;95905.47;;;17.42;63.35
12973;BME280;6551;51.056;9.466;2023-10-31T06:48:29;95916.72;;;17.44;63.94
12973;BME280;6551;51.056;9.466;2023-10-31T06:50:55;95912.63;;;17.11;64.51
12973;BME280;6551;51.056;9.466;2023-10-31T06:53:21;95913.75;;;17.45;64.37
12973;BME280;6551;51.056;9.466;2023-10-31T06:55:46;95911.03;;;17.59;63.41
12973;BME280;6551;51.056;9.466;2023-10-31T06:58:12;95916.84;;;17.03;64.26
12973;BME280;6551;51.056;9.466;2023-10-31T07:00:38;95910.41;;;16.50;65.69
12973;BME280;6551;51.056;9.466;2023-10-31T07:03:04;95908.84;;;16.62;65.36
12973;BME280;6551;51.056;9.466;2023-10-31T07:05:37;95909.25;;;17.05;64.78
12973;BME280;6551;51.056;9.466;2023-10-31T07:08:04;95912.47;;;17.07;64.64
12973;BME280;6551;51.056;9.466;2023-10-31T07:10:30;95927.97;;;17.24;63.72
12973;BME280;6551;51.056;9.466;2023-10-31T07:12:56;95937.66;;;16.98;63.94
12973;BME280;6551;51.056;9.466;2023-10-31T07:15:24;95942.69;;;16.90;64.67
12973;BME280;6551;51.056;9.466;2023-10-31T07:17:50;95939.56;;;16.97;64.44
12973;BME280;6551;51.056;9.466;2023-10-31T07:20:16;95949.28;;;17.20;64.38
12973;BME280;6551;51.056;9.466;2023-10-31T07:22:41;95949.53;;;17.10;64.52
12973;BME280;6551;51.056;9.466;2023-10-31T07:25:08;95945.91;;;17.15;64.12
12973;BME280;6551;51.056;9.466;2023-10-31T07:27:33;95952.13;;;16.88;64.82
12973;BME280;6551;51.056;9.466;2023-10-31T07:29:59;95949.25;;;16.84;64.94
12973;BME280;6551;51.056;9.466;2023-10-31T07:32:25;95951.63;;;16.86;65.12
12973;BME280;6551;51.056;9.466;2023-10-31T07:34:51;95952.53;;;16.81;65.25
12973;BME280;6551;51.056;9.466;2023-10-31T07:37:18;95953.56;;;17.71;64.28
12973;BME280;6551;51.056;9.466;2023-10-31T07:39:44;95964.59;;;18.13;62.54
12973;BME280;6551;51.056;9.466;2023-10-31T07:42:09;95968.44;;;17.90;61.55
12973;BME280;6551;51.056;9.466;2023-10-31T07:44:35;95957.25;;;17.61;62.59
12973;BME280;6551;51.056;9.466;2023-10-31T07:47:01;95962.31;;;17.40;62.42
12973;BME280;6551;51.056;9.466;2023-10-31T07:49:27;95962.25;;;17.68;62.27
12973;BME280;6551;51.056;9.466;2023-10-31T07:51:52;95957.47;;;17.65;63.17
12973;BME280;6551;51.056;9.466;2023-10-31T07:54:18;95970.31;;;17.68;62.57
12973;BME280;6551;51.056;9.466;2023-10-31T07:56:44;95969.28;;;17.28;62.62
12973;BME280;6551;51.056;9.466;2023-10-31T07:59:10;95974.56;;;17.33;63.40
12973;BME280;6551;51.056;9.466;2023-10-31T08:01:37;95956.59;;;17.56;64.08
12973;BME280;6551;51.056;9.466;2023-10-31T08:04:02;95968.47;;;17.55;62.83
12973;BME280;6551;51.056;9.466;2023-10-31T08:06:28;95955.56;;;17.29;62.78
12973;BME280;6551;51.056;9.466;2023-10-31T08:08:54;95948.84;;;17.40;62.80
12973;BME280;6551;51.056;9.466;2023-10-31T08:11:20;95959.78;;;17.44;62.30
12973;BME280;6551;51.056;9.466;2023-10-31T08:13:45;95981.56;;;17.92;61.19
12973;BME280;6551;51.056;9.466;2023-10-31T08:16:17;95977.13;;;18.40;61.52
12973;BME280;6551;51.056;9.466;2023-10-31T08:18:44;95983.91;;;17.85;60.61
12973;BME280;6551;51.056;9.466;2023-10-31T08:21:11;95990.31;;;17.75;61.44
12973;BME280;6551;51.056;9.466;2023-10-31T08:23:37;95981.50;;;17.61;62.08
12973;BME280;6551;51.056;9.466;2023-10-31T08:26:03;95991.38;;;17.66;62.37
12973;BME280;6551;51.056;9.466;2023-10-31T08:28:29;95997.53;;;17.52;61.98
12973;BME280;6551;51.056;9.466;2023-10-31T08:30:57;95990.38;;;17.84;61.82
12973;BME280;6551;51.056;9.466;2023-10-31T08:33:23;96013.47;;;17.98;61.36
12973;BME280;6551;51.056;9.466;2023-10-31T08:35:49;96009.06;;;18.02;60.89
12973;BME280;6551;51.056;9.466;2023-10-31T08:38:16;95996.88;;;17.83;60.68
12973;BME280;6551;51.056;9.466;2023-10-31T08:40:42;96016.91;;;18.13;60.83
12973;BME280;6551;51.056;9.466;2023-10-31T08:43:08;96009.09;;;17.67;61.18
12973;BME280;6551;51.056;9.466;2023-10-31T08:45:33;96001.47;;;18.04;60.92
12973;BME280;6551;51.056;9.466;2023-10-31T08:48:00;96010.28;;;18.19;59.83
12973;BME280;6551;51.056;9.466;2023-10-31T08:50:26;96015.19;;;17.59;60.80
12973;BME280;6551;51.056;9.466;2023-10-31T08:52:52;96031.06;;;17.60;60.90
12973;BME280;6551;51.056;9.466;2023-10-31T08:55:18;96034.97;;;17.54;61.26
12973;BME280;6551;51.056;9.466;2023-10-31T08:57:44;96042.50;;;17.66;61.50
12973;BME280;6551;51.056;9.466;2023-10-31T09:00:10;96046.69;;;17.58;61.78
12973;BME280;6551;51.056;9.466;2023-10-31T09:02:36;96034.94;;;17.40;61.75
12973;BME280;6551;51.056;9.466;2023-10-31T09:05:02;96048.00;;;17.20;62.13
12973;BME280;6551;51.056;9.466;2023-10-31T09:07:27;96062.13;;;17.66;62.64
12973;BME280;6551;51.056;9.466;2023-10-31T09:09:53;96057.28;;;17.55;61.82
12973;BME280;6551;51.056;9.466;2023-10-31T09:12:19;96072.31;;;17.56;62.32
12973;BME280;6551;51.056;9.466;2023-10-31T09:14:45;96076.13;;;17.55;61.82
12973;BME280;6551;51.056;9.466;2023-10-31T09:17:10;96072.09;;;17.52;62.73
12973;BME280;6551;51.056;9.466;2023-10-31T09:19:36;96083.50;;;17.63;62.60
12973;BME280;6551;51.056;9.466;2023-10-31T09:22:02;96095.63;;;17.74;61.94
12973;BME280;6551;51.056;9.466;2023-10-31T09:24:28;96093.78;;;17.83;61.25
12973;BME280;6551;51.056;9.466;2023-10-31T09:26:53;96090.88;;;17.57;61.78
12973;BME280;6551;51.056;9.466;2023-10-31T09:29:19;96104.13;;;17.13;63.51
12973;BME280;6551;51.056;9.466;2023-10-31T09:31:45;96106.13;;;17.62;62.89
12973;BME280;6551;51.056;9.466;2023-10-31T09:34:10;96110.69;;;17.20;62.84
12973;BME280;6551;51.056;9.466;2023-10-31T09:36:39;96113.56;;;17.78;61.80
12973;BME280;6551;51.056;9.466;2023-10-31T09:39:04;96125.97;;;17.66;62.07
12973;BME280;6551;51.056;9.466;2023-10-31T09:41:30;96133.00;;;17.89;61.68
12973;BME280;6551;51.056;9.466;2023-10-31T09:43:58;96124.88;;;18.02;60.74
12973;BME280;6551;51.056;9.466;2023-10-31T09:46:23;96130.19;;;17.94;60.94
12973;BME280;6551;51.056;9.466;2023-10-31T09:48:50;96132.88;;;18.07;60.88
12973;BME280;6551;51.056;9.466;2023-10-31T09:51:17;96140.44;;;18.05;60.90
12973;BME280;6551;51.056;9.466;2023-10-31T09:53:44;96137.59;;;18.24;61.24
12973;BME280;6551;51.056;9.466;2023-10-31T09:56:10;96150.41;;;18.05;61.06
12973;BME280;6551;51.056;9.466;2023-10-31T09:58:36;96150.09;;;18.42;60.27
12973;BME280;6551;51.056;9.466;2023-10-31T10:01:05;96153.09;;;18.19;59.99
12973;BME280;6551;51.056;9.466;2023-10-31T10:03:30;96157.75;;;18.27;59.70
12973;BME280;6551;51.056;9.466;2023-10-31T10:05:56;96156.00;;;18.66;59.92
12973;BME280;6551;51.056;9.466;2023-10-31T10:08:23;96165.13;;;19.01;58.84
12973;BME280;6551;51.056;9.466;2023-10-31T10:10:50;96152.56;;;18.97;58.43
12973;BME280;6551;51.056;9.466;2023-10-31T10:13:25;96157.91;;;18.66;59.24
12973;BME280;6551;51.056;9.466;2023-10-31T10:15:51;96160.19;;;18.73;59.67
12973;BME280;6551;51.056;9.466;2023-10-31T10:18:29;96153.78;;;19.13;59.10
12973;BME280;6551;51.056;9.466;2023-10-31T10:21:01;96167.03;;;19.01;59.99
12973;BME280;6551;51.056;9.466;2023-10-31T10:23:27;96163.25;;;19.02;59.53
12973;BME280;6551;51.056;9.466;2023-10-31T10:25:55;96144.94;;;18.68;59.02
12973;BME280;6551;51.056;9.466;2023-10-31T10:28:21;96166.31;;;18.64;59.42
12973;BME280;6551;51.056;9.466;2023-10-31T10:30:48;96171.09;;;18.67;59.38
12973;BME280;6551;51.056;9.466;2023-10-31T10:33:15;96169.59;;;19.06;58.49
12973;BME280;6551;51.056;9.466;2023-10-31T10:35:42;96168.03;;;18.47;58.91
12973;BME280;6551;51.056;9.466;2023-10-31T10:38:18;96172.13;;;18.58;59.07
12973;BME280;6551;51.056;9.466;2023-10-31T10:40:48;96167.72;;;18.62;58.92
12973;BME280;6551;51.056;9.466;2023-10-31T10:45:46;96156.63;;;18.86;58.56
12973;BME280;6551;51.056;9.466;2023-10-31T10:48:16;96160.31;;;18.90;58.25
12973;BME280;6551;51.056;9.466;2023-10-31T10:50:46;96180.41;;;19.37;57.70
12973;BME280;6551;51.056;9.466;2023-10-31T10:53:24;96159.03;;;19.18;56.91
12973;BME280;6551;51.056;9.466;2023-10-31T10:56:04;96173.69;;;19.56;56.79
12973;BME280;6551;51.056;9.466;2023-10-31T10:58:51;96165.16;;;19.32;56.81
12973;BME280;6551;51.056;9.466;2023-10-31T11:01:17;96169.69;;;19.23;56.86
12973;BME280;6551;51.056;9.466;2023-10-31T11:03:46;96176.69;;;19.46;57.05
12973;BME280;6551;51.056;9.466;2023-10-31T11:06:13;96173.56;;;19.08;56.90
12973;BME280;6551;51.056;9.466;2023-10-31T11:08:40;96161.53;;;18.84;57.04
12973;BME280;6551;51.056;9.466;2023-10-31T11:11:06;96165.78;;;18.76;57.35
12973;BME280;6551;51.056;9.466;2023-10-31T11:13:32;96157.97;;;18.97;57.55
12973;BME280;6551;51.056;9.466;2023-10-31T11:16:06;96160.00;;;19.22;58.09
12973;BME280;6551;51.056;9.466;2023-10-31T11:18:34;96166.75;;;18.58;58.03
12973;BME280;6551;51.056;9.466;2023-10-31T11:21:00;96163.56;;;18.78;57.80
12973;BME280;6551;51.056;9.466;2023-10-31T11:23:27;96178.56;;;19.15;56.97
12973;BME280;6551;51.056;9.466;2023-10-31T11:25:53;96176.97;;;18.92;57.21
12973;BME280;6551;51.056;9.466;2023-10-31T11:28:21;96187.91;;;19.40;56.94
12973;BME280;6551;51.056;9.466;2023-10-31T11:30:50;96193.69;;;19.55;56.33
12973;BME280;6551;51.056;9.466;2023-10-31T11:33:20;96195.56;;;19.46;56.90
12973;BME280;6551;51.056;9.466;2023-10-31T11:35:51;96192.56;;;19.48;56.37
12973;BME280;6551;51.056;9.466;2023-10-31T11:38:36;96194.16;;;19.49;56.50
12973;BME280;6551;51.056;9.466;2023-10-31T11:41:03;96186.47;;;19.11;56.71
12973;BME280;6551;51.056;9.466;2023-10-31T11:46:04;96200.63;;;18.95;57.11
12973;BME280;6551;51.056;9.466;2023-10-31T11:48:51;96205.50;;;19.37;56.77
12973;BME280;6551;51.056;9.466;2023-10-31T11:51:17;96202.38;;;18.91;57.52
12973;BME280;6551;51.056;9.466;2023-10-31T11:53:44;96211.81;;;19.33;57.66
12973;BME280;6551;51.056;9.466;2023-10-31T11:56:11;96215.38;;;19.19;57.46
12973;BME280;6551;51.056;9.466;2023-10-31T11:58:37;96208.19;;;19.06;57.41
12973;BME280;6551;51.056;9.466;2023-10-31T12:01:08;96216.53;;;19.27;57.30
12973;BME280;6551;51.056;9.466;2023-10-31T12:03:41;96213.16;;;19.21;57.50
12973;BME280;6551;51.056;9.466;2023-10-31T12:06:09;96220.56;;;19.07;57.72
12973;BME280;6551;51.056;9.466;2023-10-31T12:08:42;96220.69;;;19.33;56.76
12973;BME280;6551;51.056;9.466;2023-10-31T12:11:18;96226.84;;;19.87;56.67
12973;BME280;6551;51.056;9.466;2023-10-31T12:13:58;96223.94;;;19.74;56.11
12973;BME280;6551;51.056;9.466;2023-10-31T12:16:27;96221.25;;;19.44;56.43
12973;BME280;6551;51.056;9.466;2023-10-31T12:19:04;96231.19;;;19.96;55.78
12973;BME280;6551;51.056;9.466;2023-10-31T12:24:09;96219.56;;;19.87;55.63
12973;BME280;6551;51.056;9.466;2023-10-31T12:26:35;96210.06;;;19.98;55.09
12973;BME280;6551;51.056;9.466;2023-10-31T12:31:49;96227.69;;;19.96;55.22
12973;BME280;6551;51.056;9.466;2023-10-31T12:34:16;96217.63;;;19.79;55.36
12973;BME280;6551;51.056;9.466;2023-10-31T12:36:43;96226.19;;;19.42;55.73
12973;BME280;6551;51.056;9.466;2023-10-31T12:39:13;96222.53;;;19.15;56.00
12973;BME280;6551;51.056;9.466;2023-10-31T12:41:41;96233.59;;;19.36;56.46
12973;BME280;6551;51.056;9.466;2023-10-31T12:44:07;96235.28;;;19.23;56.04
12973;BME280;6551;51.056;9.466;2023-10-31T12:46:40;96229.50;;;19.16;56.59
12973;BME280;6551;51.056;9.466;2023-10-31T12:49:20;96240.09;;;19.66;55.92
12973;BME280;6551;51.056;9.466;2023-10-31T12:52:15;96243.47;;;19.71;55.97
12973;BME280;6551;51.056;9.466;2023-10-31T12:54:41;96253.63;;;19.66;55.84
12973;BME280;6551;51.056;9.466;2023-10-31T12:57:08;96251.19;;;19.87;56.01
12973;BME280;6551;51.056;9.466;2023-10-31T12:59:36;96252.53;;;20.15;55.57
12973;BME280;6551;51.056;9.466;2023-10-31T13:02:04;96254.31;;;19.41;55.03
12973;BME280;6551;51.056;9.466;2023-10-31T13:04:31;96264.28;;;20.02;54.94
12973;BME280;6551;51.056;9.466;2023-10-31T13:07:03;96261.66;;;19.88;54.68
12973;BME280;6551;51.056;9.466;2023-10-31T13:09:34;96259.06;;;19.21;55.67
12973;BME280;6551;51.056;9.466;2023-10-31T13:12:03;96270.66;;;19.22;55.46
12973;BME280;6551;51.056;9.466;2023-10-31T13:14:30;96276.84;;;19.22;55.94
12973;BME280;6551;51.056;9.466;2023-10-31T13:16:55;96279.47;;;19.58;56.07
12973;BME280;6551;51.056;9.466;2023-10-31T13:19:21;96271.13;;;19.68;55.57